FNUG

Uige Airport

Uige, Angola
METAR FNUG 201500Z 24008KT 9999 OVC015 25/17 Q1015
Observed Flight Rules
Aug-20 @ 15:00 UTC (an hour ago) Marginal Visual Flight Rules
Wind Visibility Clouds
240° at 8 knots 10,000+ meters
  • Overcast at 1,500' AGL
Temperatures Readings
Current 25°C / 77°F
Dewpoint 17°C / 63°F
Humidity 61%
Altimeter 29.97" Hg
Pressure 1015 hPa
Elevation 829
METAR FNUG 201500Z 24008KT 9999 OVC015 25/17 Q1015
Observed Flight Rules
Aug-20 @ 15:00 UTC
(an hour ago)
MVFR
Wind Visibility
240° at 8 knots 10,000+ meters
Clouds
  • Overcast at 1,500' AGL
Temperature Dewpoint
25°C / 77°F 17°C / 63°F
Humidity Altimeter Pressure
61% 29.97" Hg 1015 hPa